Time;durP1;ratioP1;P1;durP2;ratioP2;P2;SDS_P1;SDS_P2;PMS_P1;PMS_P2;Temp;Humidity;BMP_temperature;BMP_pressure;BME280_temperature;BME280_humidity;BME280_pressure;Samples;Min_cycle;Max_cycle;Signal;HPM_P1;HPM_P2
2023/06/05 00:01:23;;;;;;;5.43;2.87;;;16.00;1.00;;;;;;5054632;28;20535;-80
2023/06/05 00:03:53;;;;;;;8.13;3.70;;;16.00;1.00;;;;;;5037015;28;20620;-81
2023/06/05 00:06:37;;;;;;;8.63;3.50;;;15.90;1.00;;;;;;5055120;28;20625;-81
2023/06/05 00:09:04;;;;;;;8.10;3.70;;;16.00;1.00;;;;;;5055014;28;20175;-80
2023/06/05 00:11:30;;;;;;;6.27;3.20;;;16.00;1.00;;;;;;5054414;28;20200;-81
2023/06/05 00:13:56;;;;;;;4.90;3.20;;;15.90;1.00;;;;;;5036561;28;20548;-81
2023/06/05 00:16:22;;;;;;;5.33;3.57;;;15.90;1.00;;;;;;5053309;28;20165;-81
2023/06/05 00:18:48;;;;;;;5.87;3.70;;;15.80;1.00;;;;;;5036098;28;20235;-80
2023/06/05 00:21:15;;;;;;;7.23;3.30;;;15.80;1.00;;;;;;5054601;28;20223;-79
2023/06/05 00:23:41;;;;;;;8.20;3.37;;;15.70;1.00;;;;;;5054522;28;20161;-80
2023/06/05 00:26:07;;;;;;;6.83;3.13;;;15.70;1.00;;;;;;5053677;28;20181;-79
2023/06/05 00:28:33;;;;;;;6.53;3.27;;;15.60;4.00;;;;;;5053869;28;20211;-81
2023/06/05 00:30:59;;;;;;;5.60;3.70;;;15.60;4.70;;;;;;5053762;28;20582;-80
2023/06/05 00:33:26;;;;;;;8.27;3.33;;;15.60;5.00;;;;;;5035847;28;20168;-81
2023/06/05 00:35:52;;;;;;;7.33;3.93;;;15.50;7.50;;;;;;5053761;28;20173;-80
2023/06/05 00:38:18;;;;;;;4.50;2.87;;;15.50;8.20;;;;;;5053918;28;20173;-80
2023/06/05 00:40:44;;;;;;;6.83;3.60;;;15.40;9.60;;;;;;5053719;28;20193;-79
2023/06/05 00:43:10;;;;;;;7.73;4.00;;;15.40;11.20;;;;;;5053737;28;20177;-80
2023/06/05 00:45:35;;;;;;;7.70;3.33;;;15.30;11.20;;;;;;5053122;28;20173;-80
2023/06/05 00:48:02;;;;;;;6.00;3.67;;;15.30;13.60;;;;;;5053766;28;20254;-80
2023/06/05 00:50:31;;;;;;;7.20;3.50;;;15.30;12.90;;;;;;5054117;28;20184;-80
2023/06/05 00:52:57;;;;;;;6.37;3.93;;;15.30;13.20;;;;;;5054682;28;20168;-82
2023/06/05 00:55:23;;;;;;;8.37;3.60;;;15.30;14.00;;;;;;5053460;28;20525;-81
2023/06/05 00:57:49;;;;;;;6.70;3.30;;;15.20;13.90;;;;;;5038382;28;20245;-81
2023/06/05 01:00:15;;;;;;;5.37;3.40;;;15.20;14.80;;;;;;5054934;28;20631;-82
2023/06/05 01:02:41;;;;;;;6.00;3.83;;;15.20;14.50;;;;;;5054899;28;20169;-80
2023/06/05 01:05:08;;;;;;;6.93;3.30;;;15.10;16.20;;;;;;5068301;28;20164;-80
2023/06/05 01:07:37;;;;;;;8.77;3.60;;;15.10;16.60;;;;;;5069254;28;20165;-81
2023/06/05 01:10:05;;;;;;;7.37;3.90;;;15.10;17.80;;;;;;5073249;28;20171;-79
2023/06/05 01:12:43;;;;;;;8.13;3.97;;;15.00;19.00;;;;;;5069677;28;20191;-81
2023/06/05 01:15:11;;;;;;;7.13;3.70;;;15.00;18.50;;;;;;5053812;28;20253;-80
2023/06/05 01:17:42;;;;;;;6.30;4.13;;;15.00;19.10;;;;;;5036199;28;20264;-80
2023/06/05 01:20:12;;;;;;;7.03;3.43;;;14.90;20.00;;;;;;5053775;28;20325;-80
2023/06/05 01:22:40;;;;;;;5.40;3.83;;;14.90;21.60;;;;;;5054012;28;20173;-84
2023/06/05 01:25:07;;;;;;;8.47;4.30;;;14.80;23.50;;;;;;5053666;28;20523;-83
2023/06/05 01:27:42;;;;;;;6.53;3.23;;;14.80;23.40;;;;;;5037041;28;20173;-81
2023/06/05 01:30:34;;;;;;;7.83;3.77;;;14.70;24.80;;;;;;5039676;28;20182;-80
2023/06/05 01:33:34;;;;;;;7.77;3.83;;;14.70;25.40;;;;;;5078305;28;20251;-79
2023/06/05 01:36:04;;;;;;;5.40;3.83;;;14.70;25.50;;;;;;5066718;28;20164;-80
2023/06/05 01:38:35;;;;;;;6.40;3.87;;;14.70;25.20;;;;;;5079892;28;20172;-79
2023/06/05 01:41:02;;;;;;;7.30;3.93;;;14.70;25.30;;;;;;5061794;28;20235;-81
2023/06/05 01:43:30;;;;;;;7.40;4.17;;;14.60;25.70;;;;;;5058433;28;20184;-81
2023/06/05 01:45:58;;;;;;;7.70;3.93;;;14.60;26.30;;;;;;5057800;28;20173;-78
2023/06/05 01:48:27;;;;;;;6.80;3.93;;;14.50;30.00;;;;;;5057494;28;20265;-81
2023/06/05 01:51:00;;;;;;;5.93;4.20;;;14.50;29.70;;;;;;5057154;28;20265;-81
2023/06/05 01:53:27;;;;;;;9.43;4.20;;;14.40;30.00;;;;;;5056721;28;20165;-82
2023/06/05 01:55:57;;;;;;;7.63;3.80;;;14.40;32.10;;;;;;5038779;28;20185;-81
2023/06/05 01:58:26;;;;;;;6.20;4.00;;;14.30;33.50;;;;;;5056764;28;20172;-79
2023/06/05 02:00:53;;;;;;;7.40;4.33;;;14.30;35.20;;;;;;5057183;28;20213;-82
2023/06/05 02:03:20;;;;;;;8.73;4.07;;;14.30;35.30;;;;;;5039742;28;20176;-81
2023/06/05 02:05:46;;;;;;;8.33;4.33;;;14.20;36.50;;;;;;5057141;28;20176;-81
2023/06/05 02:08:13;;;;;;;5.33;4.03;;;14.20;37.30;;;;;;5057297;28;20277;-79
2023/06/05 02:10:43;;;;;;;7.37;4.40;;;14.10;38.20;;;;;;5057558;28;20203;-81
2023/06/05 02:13:10;;;;;;;7.23;4.53;;;14.10;38.70;;;;;;5038420;28;20199;-79
2023/06/05 02:15:36;;;;;;;7.47;4.47;;;14.10;38.70;;;;;;5038343;28;20178;-80
2023/06/05 02:18:04;;;;;;;7.03;4.30;;;14.20;38.00;;;;;;5056251;28;20269;-82
2023/06/05 02:20:30;;;;;;;5.47;4.33;;;14.10;37.20;;;;;;5038442;28;20229;-80
2023/06/05 02:22:56;;;;;;;6.07;4.27;;;14.10;37.10;;;;;;5056076;28;20519;-82
2023/06/05 02:25:26;;;;;;;7.53;4.23;;;14.10;38.30;;;;;;5056421;28;20689;-81
2023/06/05 02:27:56;;;;;;;7.27;4.30;;;14.10;38.00;;;;;;5055861;28;20167;-80
2023/06/05 02:30:22;;;;;;;7.70;4.83;;;14.00;39.60;;;;;;5038504;28;20265;-80
2023/06/05 02:32:56;;;;;;;7.10;4.30;;;14.00;39.90;;;;;;5055827;28;20178;-79
2023/06/05 02:35:22;;;;;;;6.80;4.57;;;14.00;38.30;;;;;;5056108;28;20258;-83
2023/06/05 02:37:48;;;;;;;6.43;4.10;;;14.00;39.00;;;;;;5055198;28;20579;-81
2023/06/05 02:40:15;;;;;;;6.20;4.63;;;14.00;41.10;;;;;;5055806;28;20252;-81
2023/06/05 02:42:41;;;;;;;6.03;4.30;;;13.90;40.20;;;;;;5056015;28;20165;-81
2023/06/05 02:45:08;;;;;;;9.83;5.20;;;13.90;40.90;;;;;;5056220;28;20634;-81
2023/06/05 02:47:34;;;;;;;6.07;4.63;;;13.80;41.20;;;;;;5055746;28;20505;-79
2023/06/05 02:50:02;;;;;;;7.37;4.90;;;13.90;41.70;;;;;;5054569;28;20189;-80
2023/06/05 02:52:35;;;;;;;8.30;4.73;;;13.80;42.80;;;;;;5055989;28;20637;-80
2023/06/05 02:55:05;;;;;;;7.73;4.90;;;13.80;41.60;;;;;;5055572;28;20167;-80
2023/06/05 02:57:33;;;;;;;8.53;4.97;;;13.80;42.00;;;;;;5037907;28;20205;-81
2023/06/05 03:00:03;;;;;;;9.17;5.13;;;13.80;41.10;;;;;;5036495;28;20206;-80
2023/06/05 03:02:29;;;;;;;8.73;5.53;;;13.70;42.50;;;;;;5055558;28;20197;-82
2023/06/05 03:04:55;;;;;;;8.87;4.97;;;13.70;44.90;;;;;;5055225;28;20202;-80
2023/06/05 03:07:22;;;;;;;6.40;4.73;;;13.60;44.70;;;;;;5055071;28;20169;-82
2023/06/05 03:09:48;;;;;;;5.40;4.33;;;13.60;47.40;;;;;;5036966;28;20648;-80
2023/06/05 03:12:13;;;;;;;7.10;4.83;;;13.60;46.10;;;;;;5055971;28;20200;-80
2023/06/05 03:14:39;;;;;;;5.93;4.97;;;13.60;47.40;;;;;;5037339;28;20659;-81
2023/06/05 03:17:05;;;;;;;7.50;4.60;;;13.60;46.00;;;;;;5055129;28;20177;-81
2023/06/05 03:19:30;;;;;;;8.23;5.10;;;13.50;47.40;;;;;;5054858;28;20209;-81
2023/06/05 03:21:56;;;;;;;8.13;5.17;;;13.50;47.90;;;;;;5055425;28;20596;-79
2023/06/05 03:24:24;;;;;;;8.13;5.10;;;13.50;47.20;;;;;;5054915;28;20177;-79
2023/06/05 03:26:50;;;;;;;10.97;5.30;;;13.50;47.80;;;;;;5055407;28;20263;-78
2023/06/05 03:29:16;;;;;;;8.90;5.33;;;13.50;48.70;;;;;;5054693;28;20161;-80
2023/06/05 03:31:42;;;;;;;11.00;5.63;;;13.40;47.10;;;;;;5036738;28;20243;-79
2023/06/05 03:34:08;;;;;;;5.90;5.30;;;13.50;50.20;;;;;;5054735;28;20261;-81
2023/06/05 03:36:34;;;;;;;6.63;5.10;;;13.30;50.20;;;;;;5054977;28;20189;-80
2023/06/05 03:39:01;;;;;;;9.20;5.07;;;13.40;50.10;;;;;;5054557;28;20223;-81
2023/06/05 03:41:26;;;;;;;6.87;5.33;;;13.30;51.60;;;;;;5054268;28;20181;-80
2023/06/05 03:43:53;;;;;;;9.37;5.13;;;13.30;50.50;;;;;;5054705;28;20702;-81
2023/06/05 03:46:19;;;;;;;9.60;5.47;;;13.30;51.20;;;;;;5054060;28;20172;-82
2023/06/05 03:48:46;;;;;;;8.90;5.63;;;13.20;53.50;;;;;;5054412;28;20169;-79
2023/06/05 03:51:11;;;;;;;8.27;5.13;;;13.20;51.90;;;;;;5035721;28;20176;-80
2023/06/05 03:53:43;;;;;;;8.17;5.07;;;13.10;53.00;;;;;;5054035;28;20173;-79
2023/06/05 03:56:08;;;;;;;10.77;5.50;;;13.10;55.60;;;;;;5057707;28;20208;-81
2023/06/05 03:58:34;;;;;;;8.43;6.07;;;13.10;57.50;;;;;;5056391;28;20164;-80
2023/06/05 04:01:00;;;;;;;9.73;5.43;;;13.10;55.50;;;;;;5054721;28;20248;-81
2023/06/05 04:03:27;;;;;;;10.43;5.87;;;13.10;55.10;;;;;;5054526;28;20576;-80
2023/06/05 04:05:53;;;;;;;11.17;6.00;;;13.10;53.00;;;;;;5055419;28;20182;-80
2023/06/05 04:08:24;;;;;;;10.53;5.73;;;13.20;54.70;;;;;;5055962;28;20173;-81
2023/06/05 04:10:50;;;;;;;8.23;5.87;;;13.20;52.50;;;;;;5055458;28;20262;-81
2023/06/05 04:13:15;;;;;;;6.77;4.80;;;13.10;51.40;;;;;;5037420;28;20309;-79
2023/06/05 04:15:44;;;;;;;9.63;5.50;;;13.10;54.00;;;;;;5037124;28;20529;-79
2023/06/05 04:18:10;;;;;;;8.20;6.07;;;13.10;53.70;;;;;;5054661;28;20170;-81
2023/06/05 04:20:35;;;;;;;7.90;5.37;;;13.20;52.50;;;;;;5036237;28;20220;-80
2023/06/05 04:23:01;;;;;;;9.53;5.43;;;13.20;51.70;;;;;;5054989;28;20223;-81
2023/06/05 04:25:28;;;;;;;9.97;5.73;;;13.20;49.80;;;;;;5062076;28;20237;-79
2023/06/05 04:27:56;;;;;;;8.27;5.50;;;13.10;50.60;;;;;;5075314;28;20171;-78
2023/06/05 04:30:21;;;;;;;11.70;6.17;;;13.10;51.30;;;;;;5071232;28;20165;-78
2023/06/05 04:32:54;;;;;;;8.63;6.07;;;13.10;52.50;;;;;;5060521;28;20244;-80
2023/06/05 04:35:20;;;;;;;8.27;6.20;;;13.10;53.60;;;;;;5037965;28;20165;-81
2023/06/05 04:37:51;;;;;;;8.77;6.00;;;13.10;54.00;;;;;;5038276;28;20179;-79
2023/06/05 04:40:20;;;;;;;9.17;6.10;;;13.20;51.90;;;;;;5037466;28;20204;-81
2023/06/05 04:42:52;;;;;;;9.87;6.03;;;13.30;49.30;;;;;;5055773;28;20158;-80
2023/06/05 04:45:17;;;;;;;8.17;6.23;;;13.30;46.50;;;;;;5055185;28;20163;-80
2023/06/05 04:47:44;;;;;;;9.67;6.20;;;13.30;47.90;;;;;;5054485;28;20605;-80
2023/06/05 04:50:22;;;;;;;9.20;6.03;;;13.40;46.50;;;;;;5056294;28;20174;-78
2023/06/05 04:52:47;;;;;;;12.13;7.47;;;13.40;42.60;;;;;;5046840;28;20177;-78
2023/06/05 04:55:13;;;;;;;8.77;6.27;;;13.50;41.50;;;;;;5064693;28;20252;-80
2023/06/05 04:57:39;;;;;;;9.97;6.50;;;13.50;40.40;;;;;;5036596;28;20274;-82
2023/06/05 05:00:07;;;;;;;8.13;5.73;;;13.40;39.80;;;;;;5053774;28;20712;-82
2023/06/05 05:02:33;;;;;;;12.50;7.00;;;13.40;40.40;;;;;;5035440;28;20177;-80
2023/06/05 05:04:58;;;;;;;8.03;6.73;;;13.30;42.50;;;;;;5053316;28;20263;-81
2023/06/05 05:07:26;;;;;;;10.40;6.87;;;13.40;42.20;;;;;;5035706;28;20513;-80
2023/06/05 05:09:52;;;;;;;9.70;6.50;;;13.40;40.80;;;;;;5036138;28;20592;-81
2023/06/05 05:12:17;;;;;;;13.77;6.87;;;13.40;41.50;;;;;;5053869;28;20169;-80
2023/06/05 05:14:44;;;;;;;11.03;6.60;;;13.50;41.10;;;;;;5054369;28;20170;-80
2023/06/05 05:17:11;;;;;;;10.93;6.57;;;13.50;38.60;;;;;;5054321;28;20245;-82
2023/06/05 05:19:40;;;;;;;11.47;7.13;;;13.50;37.40;;;;;;5053274;28;20206;-82
2023/06/05 05:22:06;;;;;;;10.67;7.13;;;13.70;39.50;;;;;;5054455;28;20180;-81
2023/06/05 05:24:32;;;;;;;10.10;6.60;;;13.70;32.50;;;;;;5054414;28;20175;-80
2023/06/05 05:26:58;;;;;;;10.60;7.37;;;13.70;30.30;;;;;;5035621;28;20558;-82
2023/06/05 05:29:23;;;;;;;10.77;7.20;;;13.70;31.40;;;;;;5035509;28;20185;-80
2023/06/05 05:31:50;;;;;;;11.83;7.40;;;13.90;30.90;;;;;;5054194;28;20168;-80
2023/06/05 05:34:17;;;;;;;11.63;7.03;;;13.90;29.20;;;;;;5054177;28;20178;-83
2023/06/05 05:36:42;;;;;;;15.93;7.80;;;14.00;22.10;;;;;;5035792;28;20183;-81
2023/06/05 05:39:08;;;;;;;11.37;7.37;;;14.00;17.60;;;;;;5053609;28;20184;-80
2023/06/05 05:41:34;;;;;;;12.70;7.00;;;14.00;17.20;;;;;;5035595;28;20225;-81
2023/06/05 05:44:00;;;;;;;12.07;7.93;;;13.90;20.60;;;;;;5034969;28;20186;-80
2023/06/05 05:46:26;;;;;;;11.23;7.70;;;14.00;21.90;;;;;;5053778;28;20536;-79
2023/06/05 05:48:51;;;;;;;14.70;7.40;;;14.00;18.20;;;;;;5053175;28;20673;-80
2023/06/05 05:51:19;;;;;;;10.87;8.23;;;14.10;18.00;;;;;;5035273;28;20637;-81
2023/06/05 05:53:44;;;;;;;9.03;6.80;;;14.10;18.10;;;;;;5053736;28;20165;-81
2023/06/05 05:56:10;;;;;;;10.77;7.57;;;14.10;11.50;;;;;;5036369;28;20184;-82
2023/06/05 05:58:36;;;;;;;14.77;8.30;;;14.20;10.70;;;;;;5052350;28;20207;-81
2023/06/05 06:01:02;;;;;;;13.90;8.53;;;14.10;13.70;;;;;;5054232;28;20228;-81
2023/06/05 06:03:30;;;;;;;14.00;8.10;;;14.10;9.80;;;;;;5053600;28;20255;-80
2023/06/05 06:05:57;;;;;;;10.70;6.93;;;14.10;10.20;;;;;;5036315;28;20187;-79
2023/06/05 06:08:22;;;;;;;15.77;7.63;;;14.20;9.90;;;;;;5035439;28;20250;-82
2023/06/05 06:10:48;;;;;;;10.23;7.07;;;14.30;8.10;;;;;;5052711;28;20169;-80
2023/06/05 06:13:14;;;;;;;13.13;7.30;;;14.40;4.20;;;;;;5035373;28;20168;-80
2023/06/05 06:15:40;;;;;;;10.83;8.17;;;14.40;2.40;;;;;;5057342;28;20172;-82
2023/06/05 06:18:06;;;;;;;14.23;7.70;;;14.50;1.90;;;;;;5041498;28;20895;-82
2023/06/05 06:20:33;;;;;;;12.33;8.37;;;14.40;1.00;;;;;;5038860;28;20216;-80
2023/06/05 06:23:00;;;;;;;10.03;7.70;;;14.30;6.30;;;;;;5054912;28;20174;-80
2023/06/05 06:25:28;;;;;;;14.97;8.17;;;14.30;10.30;;;;;;5056417;28;20184;-81
2023/06/05 06:27:55;;;;;;;11.13;7.97;;;14.50;4.20;;;;;;5055659;28;20161;-79
2023/06/05 06:30:21;;;;;;;10.63;7.53;;;14.50;1.00;;;;;;5070219;28;20173;-81
2023/06/05 06:32:47;;;;;;;10.97;7.17;;;14.60;1.00;;;;;;5055273;28;20172;-81
2023/06/05 06:35:13;;;;;;;15.13;8.50;;;14.70;1.00;;;;;;5055664;28;20176;-80
2023/06/05 06:37:43;;;;;;;12.13;7.90;;;14.80;1.00;;;;;;5037527;28;20520;-80
2023/06/05 06:40:10;;;;;;;11.63;8.60;;;14.90;1.00;;;;;;5037802;28;20354;-80
2023/06/05 06:42:37;;;;;;;17.53;9.20;;;14.80;1.00;;;;;;5056211;28;20172;-79
2023/06/05 06:45:04;;;;;;;12.90;8.53;;;15.00;1.00;;;;;;5056825;28;20260;-80
2023/06/05 06:47:30;;;;;;;12.23;8.33;;;15.10;1.00;;;;;;5059458;28;20176;-80
2023/06/05 06:49:59;;;;;;;14.00;8.20;;;15.20;1.00;;;;;;5039992;28;20172;-79
2023/06/05 06:52:25;;;;;;;11.57;8.73;;;15.10;1.00;;;;;;5056619;28;20169;-80
2023/06/05 06:54:50;;;;;;;11.17;8.03;;;15.20;1.00;;;;;;5055798;28;20208;-80
2023/06/05 06:57:16;;;;;;;10.97;8.37;;;15.20;1.00;;;;;;5056022;28;20201;-80
2023/06/05 06:59:42;;;;;;;12.43;7.77;;;15.10;1.00;;;;;;5055697;28;20197;-81
2023/06/05 07:02:13;;;;;;;13.63;8.83;;;15.10;1.00;;;;;;5056206;28;20198;-80
2023/06/05 07:04:41;;;;;;;12.87;8.47;;;15.20;1.00;;;;;;5055639;28;20196;-80
2023/06/05 07:07:12;;;;;;;14.13;8.73;;;15.10;1.00;;;;;;5057544;28;20167;-81
2023/06/05 07:09:39;;;;;;;16.90;9.53;;;15.00;1.00;;;;;;5037834;28;20169;-81
2023/06/05 07:12:05;;;;;;;16.43;9.30;;;15.10;1.00;;;;;;5055608;28;20171;-83
2023/06/05 07:14:35;;;;;;;14.17;9.00;;;15.20;1.00;;;;;;5055502;28;20161;-81
2023/06/05 07:17:01;;;;;;;13.17;8.40;;;15.30;1.00;;;;;;5055965;28;20169;-81
2023/06/05 07:19:31;;;;;;;12.33;9.07;;;15.30;1.00;;;;;;5037381;28;20214;-80
2023/06/05 07:21:58;;;;;;;12.93;8.27;;;15.40;1.00;;;;;;5055577;28;20175;-80
2023/06/05 07:24:24;;;;;;;11.53;8.53;;;15.50;1.00;;;;;;5055833;28;20187;-81
2023/06/05 07:26:52;;;;;;;12.00;8.33;;;15.50;1.00;;;;;;5055367;28;20165;-82
2023/06/05 07:29:19;;;;;;;12.83;8.90;;;15.50;1.00;;;;;;5054968;28;20165;-80
2023/06/05 07:31:46;;;;;;;13.27;8.43;;;15.50;1.00;;;;;;5056189;28;20165;-80
2023/06/05 07:34:12;;;;;;;11.43;9.03;;;15.50;1.00;;;;;;5056545;28;20224;-81
2023/06/05 07:36:39;;;;;;;11.67;8.93;;;15.50;1.00;;;;;;5055889;28;20187;-82
2023/06/05 07:39:05;;;;;;;11.33;9.27;;;15.50;1.00;;;;;;5054522;28;20204;-81
2023/06/05 07:41:30;;;;;;;13.40;9.17;;;15.50;1.00;;;;;;5054960;28;20235;-79
2023/06/05 07:43:57;;;;;;;12.83;8.80;;;15.60;1.00;;;;;;5055653;28;20259;-79
2023/06/05 07:46:23;;;;;;;9.80;8.80;;;15.80;1.00;;;;;;5036320;28;20221;-80
2023/06/05 07:48:49;;;;;;;11.77;8.50;;;15.90;1.00;;;;;;5055418;28;20572;-81
2023/06/05 07:51:15;;;;;;;11.50;8.83;;;16.10;1.00;;;;;;5054977;28;20622;-81
2023/06/05 07:53:43;;;;;;;12.53;9.07;;;15.90;1.00;;;;;;5055696;28;20169;-82
2023/06/05 07:56:08;;;;;;;13.07;9.00;;;16.10;1.00;;;;;;5054765;28;20269;-81
2023/06/05 07:58:35;;;;;;;14.03;9.00;;;16.20;1.00;;;;;;5053649;28;20631;-81
2023/06/05 08:01:02;;;;;;;15.50;8.70;;;16.20;1.00;;;;;;5036166;28;20209;-83
2023/06/05 08:03:28;;;;;;;14.10;8.10;;;16.30;1.00;;;;;;5054601;28;20569;-80
2023/06/05 08:05:54;;;;;;;12.70;8.17;;;16.40;1.00;;;;;;5031945;28;20274;-78
2023/06/05 08:08:19;;;;;;;11.97;8.60;;;16.40;1.00;;;;;;5049748;28;20185;-80
2023/06/05 08:10:45;;;;;;;13.70;8.20;;;16.50;1.00;;;;;;5053983;28;20177;-80
2023/06/05 08:13:11;;;;;;;15.93;10.37;;;16.60;1.00;;;;;;5055993;28;20169;-81
2023/06/05 08:15:37;;;;;;;12.10;7.83;;;16.60;1.00;;;;;;5055686;28;20259;-81
2023/06/05 08:18:03;;;;;;;11.93;8.27;;;16.60;1.00;;;;;;5054657;28;20177;-78
2023/06/05 08:20:29;;;;;;;11.60;8.63;;;16.80;1.00;;;;;;5054544;28;20303;-80
2023/06/05 08:22:57;;;;;;;14.00;8.90;;;16.90;1.00;;;;;;5036716;28;20200;-81
2023/06/05 08:25:25;;;;;;;13.53;9.20;;;17.10;1.00;;;;;;5036897;28;20203;-80
2023/06/05 08:27:51;;;;;;;12.40;9.13;;;17.00;1.00;;;;;;5065958;28;20158;-79
2023/06/05 08:30:17;;;;;;;9.73;8.70;;;17.00;1.00;;;;;;5075769;28;20238;-78
2023/06/05 08:32:43;;;;;;;14.20;8.67;;;16.80;1.00;;;;;;5040145;28;20668;-81
2023/06/05 08:35:10;;;;;;;12.03;8.93;;;16.80;1.00;;;;;;5054402;28;20195;-80
2023/06/05 08:37:36;;;;;;;12.20;8.23;;;16.90;1.00;;;;;;5053797;28;20294;-80
2023/06/05 08:40:12;;;;;;;13.97;8.00;;;17.00;1.00;;;;;;5053467;28;20209;-78
2023/06/05 08:42:40;;;;;;;9.70;8.10;;;17.10;1.00;;;;;;5054088;28;20159;-80
2023/06/05 08:45:08;;;;;;;13.40;8.07;;;17.30;1.00;;;;;;5059828;28;20161;-81
2023/06/05 08:47:36;;;;;;;11.37;8.30;;;17.40;1.00;;;;;;5054226;28;20169;-79
2023/06/05 08:50:06;;;;;;;12.83;8.87;;;17.40;1.00;;;;;;5054223;28;20161;-81
2023/06/05 08:52:37;;;;;;;11.03;8.63;;;17.40;1.00;;;;;;5053599;28;20249;-81
2023/06/05 08:55:07;;;;;;;11.17;8.37;;;17.40;1.00;;;;;;5036101;28;20208;-80
2023/06/05 08:57:38;;;;;;;10.07;8.57;;;17.40;1.00;;;;;;5042538;28;20178;-79
2023/06/05 09:00:10;;;;;;;13.63;8.80;;;17.60;1.00;;;;;;5075373;28;20275;-79
2023/06/05 09:02:46;;;;;;;11.63;8.80;;;17.70;1.00;;;;;;5073366;28;20159;-79
2023/06/05 09:05:12;;;;;;;13.53;8.93;;;17.90;1.00;;;;;;5041206;28;20181;-81
2023/06/05 09:07:38;;;;;;;14.17;8.20;;;17.80;1.00;;;;;;5037971;28;20552;-79
2023/06/05 09:10:05;;;;;;;14.33;8.70;;;17.80;1.00;;;;;;5054967;28;20178;-80
2023/06/05 09:12:59;;;;;;;12.13;8.60;;;17.80;1.00;;;;;;5053805;28;20253;-80
2023/06/05 09:15:34;;;;;;;10.40;8.57;;;17.90;1.00;;;;;;5052358;28;20181;-81
2023/06/05 09:18:08;;;;;;;14.73;8.90;;;18.00;1.00;;;;;;5055273;28;20149;-79
2023/06/05 09:20:35;;;;;;;15.83;8.33;;;18.30;1.00;;;;;;5054780;28;20260;-80
2023/06/05 09:23:02;;;;;;;12.80;8.10;;;18.50;1.00;;;;;;5055032;28;20180;-81
2023/06/05 09:25:50;;;;;;;11.53;8.20;;;18.60;1.00;;;;;;5054116;28;20224;-81
2023/06/05 09:28:16;;;;;;;9.23;8.20;;;18.60;1.00;;;;;;5035943;28;20271;-81
2023/06/05 09:31:05;;;;;;;12.67;8.43;;;18.40;1.00;;;;;;5035912;28;20165;-80
2023/06/05 09:33:37;;;;;;;11.27;8.37;;;18.40;1.00;;;;;;5045979;28;20185;-80
2023/06/05 09:36:13;;;;;;;11.40;8.40;;;18.60;1.00;;;;;;5053489;28;20219;-80
2023/06/05 09:38:40;;;;;;;10.77;7.40;;;18.80;1.00;;;;;;5053382;28;20604;-81
2023/06/05 09:41:06;;;;;;;11.20;8.53;;;18.80;1.00;;;;;;5053094;28;20207;-81
2023/06/05 09:43:32;;;;;;;11.27;8.57;;;18.90;1.00;;;;;;5054044;28;20163;-80
2023/06/05 09:45:58;;;;;;;11.90;8.60;;;19.10;1.00;;;;;;5054254;28;20228;-79
2023/06/05 09:48:25;;;;;;;10.90;8.73;;;19.20;1.00;;;;;;5054922;28;20532;-80
2023/06/05 09:50:52;;;;;;;11.67;7.73;;;19.10;1.00;;;;;;5058020;28;20198;-80
2023/06/05 09:53:20;;;;;;;9.33;7.70;;;19.10;1.00;;;;;;5057985;28;20220;-81
2023/06/05 09:55:46;;;;;;;11.53;7.67;;;19.30;1.00;;;;;;5057690;28;20176;-80
2023/06/05 09:58:14;;;;;;;11.30;8.13;;;19.30;1.00;;;;;;5056988;28;20474;-81
2023/06/05 10:00:41;;;;;;;11.27;8.23;;;19.50;1.00;;;;;;5039180;28;20215;-81
2023/06/05 10:03:18;;;;;;;9.53;8.00;;;19.30;1.00;;;;;;5057766;28;20166;-80
2023/06/05 10:05:45;;;;;;;12.50;8.93;;;19.50;1.00;;;;;;5056860;28;20257;-80
2023/06/05 10:08:15;;;;;;;11.03;7.77;;;19.50;1.00;;;;;;5057346;28;20167;-81
2023/06/05 10:10:42;;;;;;;13.97;8.43;;;19.60;1.00;;;;;;5039387;28;20591;-79
2023/06/05 10:13:10;;;;;;;13.60;9.00;;;19.60;1.00;;;;;;5059729;28;20218;-81
2023/06/05 10:15:38;;;;;;;14.63;8.17;;;19.70;1.00;;;;;;5060594;28;20601;-81
2023/06/05 10:18:05;;;;;;;10.30;7.50;;;19.70;1.00;;;;;;5058483;28;20201;-80
2023/06/05 10:20:31;;;;;;;11.17;7.10;;;19.90;1.00;;;;;;5038491;28;20223;-80
2023/06/05 10:22:57;;;;;;;10.80;7.70;;;20.10;1.00;;;;;;5041471;28;20188;-82
2023/06/05 10:25:24;;;;;;;10.37;7.67;;;20.10;99.90;;;;;;5041981;28;20616;-79
2023/06/05 10:28:48;;;;;;;11.33;7.30;;;20.10;99.90;;;;;;5039904;28;20168;-81
2023/06/05 10:31:46;;;;;;;14.87;7.03;;;20.40;99.90;;;;;;4997505;28;20276;-79
2023/06/05 10:34:18;;;;;;;10.93;8.00;;;20.30;99.90;;;;;;4996107;28;20672;-80
2023/06/05 10:36:53;;;;;;;11.37;6.80;;;20.30;99.90;;;;;;5028839;28;20648;-80
2023/06/05 10:39:19;;;;;;;8.33;6.57;;;20.50;99.90;;;;;;5074860;28;20171;-81
2023/06/05 10:41:45;;;;;;;11.10;6.67;;;20.60;99.90;;;;;;5070550;28;20322;-79
2023/06/05 10:44:12;;;;;;;10.00;7.20;;;20.70;99.90;;;;;;5058669;28;20233;-80
2023/06/05 10:46:39;;;;;;;9.70;7.10;;;20.60;99.90;;;;;;5055283;28;20344;-79
2023/06/05 10:49:07;;;;;;;9.50;6.13;;;20.60;99.90;;;;;;5056062;28;20541;-79
2023/06/05 10:51:40;;;;;;;13.07;7.53;;;20.80;99.90;;;;;;5050523;28;20189;-78
2023/06/05 10:54:30;;;;;;;10.53;7.17;;;20.70;99.90;;;;;;5053837;28;20163;-79
2023/06/05 10:57:03;;;;;;;10.70;6.60;;;20.80;99.90;;;;;;5029919;28;20182;-80
2023/06/05 10:59:34;;;;;;;11.50;7.00;;;20.90;99.90;;;;;;5039450;28;20221;-80
2023/06/05 11:02:00;;;;;;;11.23;7.13;;;21.10;99.90;;;;;;5049772;28;20179;-79
2023/06/05 11:04:26;;;;;;;8.57;6.23;;;21.00;99.90;;;;;;5022622;28;20188;-80
2023/06/05 11:07:18;;;;;;;9.43;6.23;;;21.10;99.90;;;;;;5048116;28;20178;-80
2023/06/05 11:10:15;;;;;;;8.90;6.27;;;21.40;99.90;;;;;;5056131;28;20188;-81
2023/06/05 11:12:41;;;;;;;11.00;7.13;;;21.40;99.90;;;;;;5036818;28;20173;-79
2023/06/05 11:15:12;;;;;;;10.07;7.30;;;21.40;99.90;;;;;;5054025;28;20167;-79
2023/06/05 11:17:41;;;;;;;14.10;6.80;;;21.40;99.90;;;;;;5058688;28;20190;-80
2023/06/05 11:20:09;;;;;;;11.43;6.80;;;21.30;99.90;;;;;;5055567;28;20208;-81
2023/06/05 11:22:58;;;;;;;9.83;6.80;;;21.30;99.90;;;;;;5053358;28;20170;-79
2023/06/05 11:25:29;;;;;;;13.10;6.13;;;21.60;99.90;;;;;;5044929;28;20179;-78
2023/06/05 11:28:22;;;;;;;11.00;6.27;;;21.80;1.00;;;;;;5067600;28;20203;-80
2023/06/05 11:30:45;;;;;;;8.27;6.13;;;21.70;1.00;;;;;;5051856;28;20217;-79
2023/06/05 11:33:13;;;;;;;12.07;6.87;;;21.70;1.00;;;;;;5043882;28;20216;-79
2023/06/05 11:35:40;;;;;;;9.70;6.80;;;21.70;1.00;;;;;;5038746;28;20208;-80
2023/06/05 11:38:10;;;;;;;9.23;6.97;;;21.80;1.00;;;;;;5035695;28;20291;-81
2023/06/05 11:40:36;;;;;;;11.93;6.83;;;21.70;1.00;;;;;;5035320;28;20314;-79
2023/06/05 11:43:11;;;;;;;8.97;5.87;;;21.90;1.00;;;;;;5036364;28;20628;-81
2023/06/05 11:45:38;;;;;;;10.30;7.17;;;21.80;1.00;;;;;;5018429;28;20185;-78
2023/06/05 11:48:11;;;;;;;13.83;6.27;;;21.80;1.00;;;;;;5035796;28;20167;-78
2023/06/05 11:50:40;;;;;;;7.73;6.00;;;22.00;99.90;;;;;;5035850;28;20182;-81
2023/06/05 11:53:10;;;;;;;11.33;6.93;;;22.00;99.90;;;;;;5035899;28;20311;-80
2023/06/05 11:56:05;;;;;;;8.97;6.40;;;22.00;1.00;;;;;;5036247;28;20163;-82
2023/06/05 11:58:37;;;;;;;9.80;5.43;;;22.20;1.00;;;;;;5035667;28;20166;-79
2023/06/05 12:01:14;;;;;;;8.87;5.70;;;22.20;99.90;;;;;;5035796;28;20341;-80
2023/06/05 12:03:41;;;;;;;12.53;5.60;;;22.40;99.90;;;;;;5037227;28;20645;-80
2023/06/05 12:06:07;;;;;;;7.97;5.60;;;22.70;63.00;;;;;;5035043;28;20311;-81
2023/06/05 12:08:35;;;;;;;8.33;5.37;;;22.70;99.90;;;;;;5035223;28;20196;-80
2023/06/05 12:11:38;;;;;;;8.33;5.27;;;22.80;1.00;;;;;;5033932;28;20179;-80
2023/06/05 12:14:06;;;;;;;9.10;6.77;;;22.70;1.00;;;;;;5035261;28;20160;-80
2023/06/05 12:16:32;;;;;;;8.33;5.80;;;22.60;1.00;;;;;;5036475;28;20200;-80
2023/06/05 12:18:59;;;;;;;12.37;7.00;;;22.50;71.00;;;;;;5037206;28;20189;-79
2023/06/05 12:21:26;;;;;;;8.67;5.20;;;22.50;1.00;;;;;;5046800;28;20196;-79
2023/06/05 12:24:05;;;;;;;13.10;6.83;;;22.60;99.90;;;;;;5049758;28;20165;-80
2023/06/05 12:26:55;;;;;;;7.57;4.50;;;22.60;1.00;;;;;;5048031;28;20196;-79
2023/06/05 12:29:32;;;;;;;7.33;4.40;;;22.50;45.70;;;;;;5028840;28;20531;-79
2023/06/05 12:32:22;;;;;;;6.37;4.17;;;22.60;1.00;;;;;;5022840;28;20200;-80
2023/06/05 12:34:56;;;;;;;7.87;4.53;;;22.70;1.00;;;;;;5018777;28;20253;-79
2023/06/05 12:37:49;;;;;;;8.23;5.57;;;22.90;1.00;;;;;;5034766;28;20626;-80
2023/06/05 12:40:20;;;;;;;11.07;5.07;;;22.70;99.90;;;;;;5032445;28;20224;-80
2023/06/05 12:42:47;;;;;;;9.47;5.23;;;22.70;99.90;;;;;;5034274;28;20158;-80
2023/06/05 12:45:14;;;;;;;8.20;5.13;;;22.80;1.00;;;;;;5016695;28;20200;-79
2023/06/05 12:47:42;;;;;;;8.07;4.90;;;22.90;99.90;;;;;;5015732;28;20614;-79
2023/06/05 12:50:11;;;;;;;9.47;5.00;;;22.80;99.90;;;;;;5033802;28;20189;-80
2023/06/05 12:52:41;;;;;;;7.77;5.00;;;22.90;99.90;;;;;;5034388;28;20167;-79
2023/06/05 12:55:08;;;;;;;7.43;4.87;;;22.80;99.90;;;;;;5015728;28;20225;-80